Time;durP1;ratioP1;P1;durP2;ratioP2;P2;SDS_P1;SDS_P2;PMS_P1;PMS_P2;Temp;Humidity;BMP_temperature;BMP_pressure;BME280_temperature;BME280_humidity;BME280_pressure;Samples;Min_cycle;Max_cycle;Signal;HPM_P1;HPM_P2
2023/08/10 00:00:25;;;;;;;4.43;2.08;;;;;;;18.05;39.76;101652.22;4987160;28;20400;-76
2023/08/10 00:02:53;;;;;;;4.13;1.95;;;;;;;18.04;39.63;101656.03;4992473;28;20520;-75
2023/08/10 00:05:22;;;;;;;3.38;1.70;;;;;;;18.03;39.87;101645.97;4992845;28;20161;-76
2023/08/10 00:07:50;;;;;;;3.45;1.88;;;;;;;17.99;39.87;101650.97;4988059;28;20074;-76
2023/08/10 00:10:18;;;;;;;5.20;2.10;;;;;;;17.98;39.63;101652.00;4989195;28;20824;-76
2023/08/10 00:12:46;;;;;;;3.58;2.00;;;;;;;17.96;39.59;101654.09;4995772;28;20038;-75
2023/08/10 00:15:14;;;;;;;4.03;1.83;;;;;;;17.96;39.84;101655.97;4995123;28;20057;-76
2023/08/10 00:17:42;;;;;;;3.63;1.75;;;;;;;17.94;39.60;101649.72;4986494;28;20105;-75
2023/08/10 00:20:12;;;;;;;3.75;1.77;;;;;;;17.94;39.86;101652.50;4992621;28;20051;-76
2023/08/10 00:22:41;;;;;;;4.68;2.20;;;;;;;17.93;39.83;101656.31;4993885;28;20120;-75
2023/08/10 00:25:09;;;;;;;3.65;1.92;;;;;;;17.91;40.11;101655.59;4991566;28;20054;-75
2023/08/10 00:27:38;;;;;;;3.95;1.88;;;;;;;17.89;40.11;101653.00;4986388;28;20566;-76
2023/08/10 00:30:08;;;;;;;3.25;1.70;;;;;;;17.90;40.01;101659.38;4994495;28;20430;-75
2023/08/10 00:32:36;;;;;;;5.05;2.10;;;;;;;17.87;40.36;101655.06;4969829;28;20057;-76
2023/08/10 00:35:05;;;;;;;2.90;1.50;;;;;;;17.86;39.84;101653.31;4987271;28;20464;-75
2023/08/10 00:37:33;;;;;;;2.95;1.60;;;;;;;17.85;39.67;101651.56;4996868;28;20149;-75
2023/08/10 00:40:04;;;;;;;4.28;1.60;;;;;;;17.87;40.07;101659.72;4984125;28;20046;-76
2023/08/10 00:42:32;;;;;;;3.63;1.52;;;;;;;17.84;39.85;101654.50;4992220;28;20321;-76
2023/08/10 00:45:00;;;;;;;4.25;1.60;;;;;;;17.83;39.78;101658.31;4975284;28;20041;-75
2023/08/10 00:47:28;;;;;;;2.92;1.70;;;;;;;17.83;39.80;101650.88;4990004;28;20038;-75
2023/08/10 00:49:57;;;;;;;4.20;1.70;;;;;;;17.82;39.86;101654.66;4994125;28;20056;-75
2023/08/10 00:52:25;;;;;;;4.90;1.70;;;;;;;17.81;39.67;101652.94;4993748;28;20064;-75
2023/08/10 00:54:53;;;;;;;2.63;1.52;;;;;;;17.80;39.72;101648.44;4989923;28;20067;-75
2023/08/10 00:57:22;;;;;;;3.08;1.50;;;;;;;17.81;39.88;101647.41;4998993;28;20057;-76
2023/08/10 00:59:52;;;;;;;3.00;1.60;;;;;;;17.79;39.99;101646.69;4998610;28;20076;-75
2023/08/10 01:02:20;;;;;;;3.65;1.63;;;;;;;17.79;39.85;101645.81;4974669;28;20057;-75
2023/08/10 01:04:48;;;;;;;4.43;1.58;;;;;;;17.77;40.41;101640.44;4994165;28;20125;-76
2023/08/10 01:07:23;;;;;;;2.75;1.50;;;;;;;17.79;40.33;101643.06;4989914;28;20104;-75
2023/08/10 01:10:00;;;;;;;3.30;1.85;;;;;;;17.79;40.79;101643.06;4994859;28;20136;-76
2023/08/10 01:12:34;;;;;;;3.85;1.90;;;;;;;17.76;40.55;101647.00;4990329;28;20366;-75
2023/08/10 01:15:13;;;;;;;3.72;1.95;;;;;;;17.75;41.10;101651.69;4986783;28;20043;-76
2023/08/10 01:17:48;;;;;;;3.22;1.85;;;;;;;17.73;40.52;101653.69;4988943;28;20054;-76
2023/08/10 01:20:19;;;;;;;3.33;1.90;;;;;;;17.72;40.86;101660.31;4974273;28;20042;-75
2023/08/10 01:22:55;;;;;;;3.88;1.80;;;;;;;17.73;40.98;101667.53;4988167;28;20130;-75
2023/08/10 01:25:25;;;;;;;4.72;2.17;;;;;;;17.72;40.67;101651.13;4988047;28;20050;-76
2023/08/10 01:27:54;;;;;;;4.75;2.17;;;;;;;17.69;41.01;101649.53;4986445;28;20054;-75
2023/08/10 01:30:22;;;;;;;3.25;1.67;;;;;;;17.69;40.70;101662.50;4990332;28;20054;-75
2023/08/10 01:32:52;;;;;;;3.47;1.80;;;;;;;17.71;40.65;101660.44;4985788;28;20117;-75
2023/08/10 01:35:20;;;;;;;3.55;1.90;;;;;;;17.68;40.48;101669.06;4989956;28;20054;-75
2023/08/10 01:37:48;;;;;;;3.65;2.05;;;;;;;17.68;40.84;101671.84;4987074;28;20042;-75
2023/08/10 01:40:17;;;;;;;2.78;1.70;;;;;;;17.68;41.18;101666.31;4997497;28;20141;-75
2023/08/10 01:42:46;;;;;;;3.90;1.77;;;;;;;17.69;41.01;101662.50;4991601;28;20121;-75
2023/08/10 01:45:14;;;;;;;4.47;1.70;;;;;;;17.66;41.21;101665.59;4989796;28;20083;-75
2023/08/10 01:47:49;;;;;;;3.10;1.65;;;;;;;17.69;40.89;101670.81;4993711;28;20093;-75
2023/08/10 01:50:20;;;;;;;3.08;1.58;;;;;;;17.66;41.14;101673.88;4986898;28;20049;-75
2023/08/10 01:52:51;;;;;;;2.80;1.67;;;;;;;17.67;41.49;101670.09;4988176;28;20068;-75
2023/08/10 01:55:20;;;;;;;3.50;1.60;;;;;;;17.65;41.21;101667.47;4975735;28;20048;-75
2023/08/10 01:57:50;;;;;;;3.65;1.42;;;;;;;17.66;41.41;101668.34;4982493;28;20066;-75
2023/08/10 02:00:18;;;;;;;2.75;1.52;;;;;;;17.63;40.99;101664.03;4987340;28;20070;-75
2023/08/10 02:02:49;;;;;;;5.38;1.90;;;;;;;17.62;41.03;101667.81;4980893;28;20038;-75
2023/08/10 02:05:17;;;;;;;3.13;1.65;;;;;;;17.62;41.37;101665.06;4989400;28;20042;-75
2023/08/10 02:07:48;;;;;;;3.40;1.60;;;;;;;17.62;41.36;101672.50;4983311;28;20043;-75
2023/08/10 02:10:17;;;;;;;2.95;1.65;;;;;;;17.61;41.52;101666.09;4984441;28;20038;-75
2023/08/10 02:12:45;;;;;;;3.67;1.70;;;;;;;17.61;41.11;101676.28;4988133;28;20093;-75
2023/08/10 02:15:15;;;;;;;3.72;1.80;;;;;;;17.62;41.10;101675.25;4985460;28;20100;-75
2023/08/10 02:17:44;;;;;;;4.40;1.77;;;;;;;17.59;40.85;101678.34;4992996;28;20050;-75
2023/08/10 02:20:13;;;;;;;3.85;1.73;;;;;;;17.57;41.01;101675.72;4993704;28;20124;-75
2023/08/10 02:22:43;;;;;;;3.25;1.60;;;;;;;17.57;41.58;101686.78;4987368;28;20046;-75
2023/08/10 02:25:11;;;;;;;3.85;1.60;;;;;;;17.55;41.38;101682.47;4971241;28;20055;-75
2023/08/10 02:27:40;;;;;;;3.58;1.80;;;;;;;17.56;41.37;101684.22;4991686;28;20047;-75
2023/08/10 02:30:10;;;;;;;4.18;2.10;;;;;;;17.54;41.43;101681.59;4986886;28;20030;-75
2023/08/10 02:32:40;;;;;;;3.92;1.73;;;;;;;17.54;41.78;101683.50;4977192;28;20070;-75
2023/08/10 02:35:09;;;;;;;3.70;1.80;;;;;;;17.51;41.36;101675.50;4988097;28;20062;-75
2023/08/10 02:37:38;;;;;;;3.97;1.83;;;;;;;17.48;41.52;101671.19;4977292;28;20052;-75
2023/08/10 02:40:07;;;;;;;3.80;1.88;;;;;;;17.47;41.63;101680.50;4996435;28;20050;-75
2023/08/10 02:42:35;;;;;;;2.70;1.67;;;;;;;17.44;41.73;101675.28;4986780;28;20418;-75
2023/08/10 02:45:04;;;;;;;4.30;2.00;;;;;;;17.43;41.80;101675.44;4993413;28;20608;-75
2023/08/10 02:47:33;;;;;;;3.58;1.80;;;;;;;17.39;41.72;101664.69;4982859;28;20066;-75
2023/08/10 02:50:05;;;;;;;3.58;1.90;;;;;;;17.40;41.47;101669.19;4986397;28;20043;-75
2023/08/10 02:52:33;;;;;;;3.50;1.60;;;;;;;17.36;42.02;101672.44;4994659;28;20436;-75
2023/08/10 02:55:01;;;;;;;5.35;1.90;;;;;;;17.33;42.15;101665.31;4976651;28;20046;-75
2023/08/10 02:57:30;;;;;;;5.03;1.92;;;;;;;17.32;41.74;101666.34;4987955;28;20042;-75
2023/08/10 02:59:58;;;;;;;4.63;2.20;;;;;;;17.31;42.08;101661.00;4992047;28;20053;-75
2023/08/10 03:02:28;;;;;;;4.68;1.80;;;;;;;17.28;41.84;101666.84;4990136;28;20046;-75
2023/08/10 03:04:57;;;;;;;3.75;1.80;;;;;;;17.25;42.23;101659.72;4987833;28;20490;-75
2023/08/10 03:07:27;;;;;;;4.32;2.15;;;;;;;17.25;41.96;101669.91;4983525;28;20514;-75
2023/08/10 03:09:56;;;;;;;3.70;1.80;;;;;;;17.22;41.90;101673.00;4989956;28;20054;-75
2023/08/10 03:12:26;;;;;;;3.75;1.88;;;;;;;17.19;42.28;101674.19;4970102;28;20051;-75
2023/08/10 03:14:54;;;;;;;4.30;2.08;;;;;;;17.18;41.98;101679.88;4988054;28;20050;-74
2023/08/10 03:17:22;;;;;;;4.20;1.70;;;;;;;17.16;41.80;101688.31;4989522;28;20046;-75
2023/08/10 03:19:51;;;;;;;3.70;1.95;;;;;;;17.14;42.14;101681.22;4984283;28;22225;-75
2023/08/10 03:22:20;;;;;;;4.18;1.80;;;;;;;17.12;42.13;101681.38;4969391;28;20134;-75
2023/08/10 03:24:50;;;;;;;3.53;2.00;;;;;;;17.13;41.82;101688.66;4966403;28;20082;-74
2023/08/10 03:27:18;;;;;;;4.88;2.13;;;;;;;17.11;41.65;101685.16;4985039;28;20116;-75
2023/08/10 03:29:47;;;;;;;4.10;1.98;;;;;;;17.09;41.86;101678.91;4971264;28;20038;-75
2023/08/10 03:32:15;;;;;;;3.25;1.70;;;;;;;17.08;41.82;101682.69;4982516;28;20100;-75
2023/08/10 03:34:42;;;;;;;3.53;1.90;;;;;;;17.07;42.18;101691.19;4989636;28;20066;-75
2023/08/10 03:37:12;;;;;;;4.00;2.03;;;;;;;17.05;42.04;101694.09;4978503;28;20097;-75
2023/08/10 03:39:40;;;;;;;3.92;2.00;;;;;;;17.05;41.96;101693.22;4987413;28;20043;-74
2023/08/10 03:42:09;;;;;;;4.38;1.88;;;;;;;17.06;41.94;101694.97;4990366;28;20092;-74
2023/08/10 03:44:37;;;;;;;3.42;2.00;;;;;;;17.01;42.25;101704.59;4989297;28;20137;-74
2023/08/10 03:47:06;;;;;;;3.22;1.65;;;;;;;17.00;42.14;101700.06;4973286;28;20577;-74
2023/08/10 03:49:34;;;;;;;3.85;1.80;;;;;;;16.99;42.07;101705.75;4989497;28;20398;-74
2023/08/10 03:52:03;;;;;;;5.05;2.20;;;;;;;16.98;42.42;101706.81;4989715;28;20556;-74
2023/08/10 03:54:31;;;;;;;4.50;1.98;;;;;;;16.97;42.16;101702.31;4994359;28;20046;-74
2023/08/10 03:56:59;;;;;;;3.55;1.60;;;;;;;16.95;42.16;101699.66;4989726;28;20338;-74
2023/08/10 03:59:28;;;;;;;4.95;2.13;;;;;;;16.97;42.50;101699.53;4989325;28;20158;-74
2023/08/10 04:01:56;;;;;;;3.38;1.70;;;;;;;16.94;42.53;101702.56;4995558;28;20050;-74
2023/08/10 04:04:24;;;;;;;3.80;1.80;;;;;;;16.94;42.48;101697.03;4990552;28;20069;-74
2023/08/10 04:06:54;;;;;;;4.60;2.40;;;;;;;16.93;42.87;101704.47;4990796;28;20034;-75
2023/08/10 04:09:22;;;;;;;3.50;1.80;;;;;;;16.92;42.52;101707.38;4987473;28;20068;-75
2023/08/10 04:11:50;;;;;;;3.33;1.85;;;;;;;16.93;42.89;101722.94;4983957;28;20038;-75
2023/08/10 04:14:18;;;;;;;3.03;1.63;;;;;;;16.93;42.82;101720.19;4988303;28;20046;-75
2023/08/10 04:16:47;;;;;;;3.03;1.70;;;;;;;16.94;42.86;101716.41;4987934;28;20043;-75
2023/08/10 04:19:15;;;;;;;4.05;2.25;;;;;;;16.92;43.18;101723.97;4986906;28;20064;-75
2023/08/10 04:21:45;;;;;;;3.40;1.85;;;;;;;16.94;42.92;101719.16;4986476;28;20414;-75
2023/08/10 04:24:13;;;;;;;3.88;1.90;;;;;;;16.91;43.19;101725.00;4982267;28;20473;-75
2023/08/10 04:26:41;;;;;;;3.10;1.90;;;;;;;16.91;42.81;101723.09;4996039;28;20092;-75
2023/08/10 04:29:13;;;;;;;4.40;1.95;;;;;;;16.91;42.83;101725.88;4991985;28;20074;-75
2023/08/10 04:31:44;;;;;;;4.07;1.90;;;;;;;16.90;43.36;101724.16;4980540;28;20042;-74
2023/08/10 04:34:14;;;;;;;4.20;1.80;;;;;;;16.92;42.85;101726.72;4985750;28;20035;-76
2023/08/10 04:36:42;;;;;;;3.85;1.90;;;;;;;16.90;42.56;101721.38;4979250;28;20140;-75
2023/08/10 04:39:11;;;;;;;3.60;1.83;;;;;;;16.89;43.06;101727.94;4971176;28;20840;-76
2023/08/10 04:41:38;;;;;;;3.15;1.80;;;;;;;16.89;42.62;101730.69;4989416;28;20750;-76
2023/08/10 04:44:06;;;;;;;3.67;1.73;;;;;;;16.89;42.78;101732.59;4988478;28;20088;-76
2023/08/10 04:46:34;;;;;;;3.88;1.92;;;;;;;16.89;42.81;101735.38;4985028;28;20117;-74
2023/08/10 04:49:02;;;;;;;3.13;1.70;;;;;;;16.89;42.95;101732.59;4989747;28;20057;-75
2023/08/10 04:51:32;;;;;;;3.83;1.90;;;;;;;16.90;43.14;101737.09;4988361;28;20050;-75
2023/08/10 04:54:00;;;;;;;4.80;2.10;;;;;;;16.88;42.53;101741.91;4968931;28;20112;-76
2023/08/10 04:56:28;;;;;;;3.35;1.67;;;;;;;16.88;42.44;101740.03;4985027;28;20050;-75
2023/08/10 04:58:55;;;;;;;3.80;2.20;;;;;;;16.89;42.88;101747.28;4983856;28;20054;-76
2023/08/10 05:01:24;;;;;;;5.18;2.00;;;;;;;16.89;42.45;101743.66;4969571;28;20170;-76
2023/08/10 05:03:52;;;;;;;4.13;1.95;;;;;;;16.89;42.57;101751.94;4970095;28;20062;-76
2023/08/10 05:06:20;;;;;;;3.88;1.88;;;;;;;16.89;42.82;101747.28;4984021;28;20194;-76
2023/08/10 05:08:49;;;;;;;4.00;2.00;;;;;;;16.92;42.46;101746.97;4990288;28;20414;-81
2023/08/10 05:11:17;;;;;;;4.95;2.25;;;;;;;16.90;42.70;101748.16;4987068;28;20117;-76
2023/08/10 05:13:45;;;;;;;4.05;2.10;;;;;;;16.91;42.79;101741.59;4988848;28;20498;-76
2023/08/10 05:16:13;;;;;;;3.70;2.00;;;;;;;16.91;42.68;101736.06;4974316;28;20547;-75
2023/08/10 05:18:41;;;;;;;4.47;1.90;;;;;;;16.92;42.99;101744.19;4992473;28;20100;-75
2023/08/10 05:21:09;;;;;;;3.65;1.90;;;;;;;16.92;42.62;101746.97;4957857;28;20061;-75
2023/08/10 05:23:38;;;;;;;4.10;1.83;;;;;;;16.93;43.14;101747.84;4982005;28;20049;-75
2023/08/10 05:26:08;;;;;;;4.88;2.25;;;;;;;16.95;42.47;101745.78;4968794;28;20051;-75
2023/08/10 05:28:36;;;;;;;3.53;2.00;;;;;;;16.94;42.49;101733.00;4961873;28;20061;-75
2023/08/10 05:31:04;;;;;;;3.90;1.92;;;;;;;16.94;42.51;101731.09;4968443;28;20038;-75
2023/08/10 05:33:32;;;;;;;4.18;2.15;;;;;;;16.95;43.06;101731.97;4980929;28;20051;-75
2023/08/10 05:36:00;;;;;;;5.75;2.40;;;;;;;16.95;42.71;101730.06;4962785;28;20715;-75
2023/08/10 05:38:28;;;;;;;4.30;2.08;;;;;;;16.98;42.98;101728.94;4964532;28;20059;-75
2023/08/10 05:40:56;;;;;;;4.10;2.30;;;;;;;17.01;43.00;101721.19;4957923;28;20416;-75
2023/08/10 05:43:25;;;;;;;5.07;2.35;;;;;;;17.10;43.24;101727.66;4944451;28;20391;-75
2023/08/10 05:45:54;;;;;;;5.13;2.47;;;;;;;17.14;43.81;101742.94;4961788;28;20357;-75
2023/08/10 05:48:23;;;;;;;3.30;1.92;;;;;;;17.22;43.57;101740.28;4966267;28;20046;-76
2023/08/10 05:50:51;;;;;;;4.22;2.40;;;;;;;17.30;43.69;101739.47;4968558;28;20039;-75
2023/08/10 05:53:19;;;;;;;4.10;2.28;;;;;;;17.37;43.34;101737.81;4969527;28;20058;-75
2023/08/10 05:55:47;;;;;;;4.97;2.30;;;;;;;17.46;43.61;101738.78;4954480;28;20100;-74
2023/08/10 05:58:16;;;;;;;4.65;2.60;;;;;;;17.53;43.24;101745.41;4976486;28;20058;-75
2023/08/10 06:00:45;;;;;;;4.63;2.70;;;;;;;17.60;42.62;101749.28;4963456;28;20051;-75
2023/08/10 06:03:14;;;;;;;4.13;2.35;;;;;;;17.65;43.03;101749.66;4954784;28;20053;-74
2023/08/10 06:05:43;;;;;;;4.90;2.30;;;;;;;17.69;42.98;101745.56;4953483;28;20456;-74
2023/08/10 06:08:11;;;;;;;4.03;2.30;;;;;;;17.73;42.30;101744.22;4939381;28;20035;-74
2023/08/10 06:10:40;;;;;;;5.65;2.83;;;;;;;17.75;42.01;101745.81;4952448;28;20053;-74
2023/08/10 06:13:07;;;;;;;4.07;2.50;;;;;;;17.76;41.72;101744.78;4953289;28;20039;-74
2023/08/10 06:15:36;;;;;;;4.63;2.60;;;;;;;17.77;42.03;101742.88;4958722;28;20039;-74
2023/08/10 06:18:06;;;;;;;7.38;3.17;;;;;;;17.80;41.78;101742.59;4948201;28;20055;-74
2023/08/10 06:20:35;;;;;;;4.55;2.30;;;;;;;17.79;42.09;101742.75;4974371;28;20049;-74
2023/08/10 06:23:03;;;;;;;4.57;2.33;;;;;;;17.79;41.51;101742.75;4992182;28;20038;-74
2023/08/10 06:25:31;;;;;;;4.78;2.20;;;;;;;17.80;41.59;101752.78;4984396;28;20048;-75
2023/08/10 06:28:00;;;;;;;5.10;2.58;;;;;;;17.81;41.46;101740.69;4985820;28;20553;-74
2023/08/10 06:30:27;;;;;;;4.90;2.10;;;;;;;17.81;41.93;101746.22;4996630;28;20057;-74
2023/08/10 06:32:55;;;;;;;4.38;2.38;;;;;;;17.82;41.75;101747.94;4982257;28;20053;-74
2023/08/10 06:35:25;;;;;;;4.90;2.10;;;;;;;17.85;41.96;101745.72;4978108;28;20638;-74
2023/08/10 06:37:53;;;;;;;5.30;2.20;;;;;;;17.87;42.20;101746.44;4986995;28;20054;-75
2023/08/10 06:40:21;;;;;;;5.70;2.25;;;;;;;17.90;42.24;101748.88;4983735;28;20050;-74
2023/08/10 06:42:49;;;;;;;3.70;2.15;;;;;;;17.97;41.69;101746.34;4987511;28;20096;-74
2023/08/10 06:45:30;;;;;;;3.80;2.08;;;;;;;18.04;42.15;101750.22;4985268;28;20509;-73
2023/08/10 06:47:58;;;;;;;4.85;2.13;;;;;;;18.11;42.05;101749.41;4986855;28;20050;-73
2023/08/10 06:50:27;;;;;;;4.25;2.22;;;;;;;18.21;42.08;101757.63;4970511;28;20034;-73
2023/08/10 06:52:55;;;;;;;5.32;1.85;;;;;;;18.26;41.68;101757.97;4987852;28;20122;-73
2023/08/10 06:55:23;;;;;;;4.97;2.38;;;;;;;18.38;41.55;101766.91;4986303;28;20082;-73
2023/08/10 06:57:51;;;;;;;3.97;1.92;;;;;;;18.47;41.66;101768.69;4965649;28;20049;-73
2023/08/10 07:03:07;;;;;;;3.97;1.85;;;;;;;18.69;41.05;101761.72;5027226;28;20576;-63
2023/08/10 07:05:39;;;;;;;3.03;1.80;;;;;;;18.83;40.56;101764.75;5035669;28;20045;-62
2023/08/10 07:08:08;;;;;;;4.03;2.00;;;;;;;18.90;40.71;101763.03;5043713;28;20420;-59
2023/08/10 07:10:36;;;;;;;3.88;1.70;;;;;;;19.04;41.26;101755.13;5045425;28;20193;-59
2023/08/10 07:13:05;;;;;;;2.72;1.52;;;;;;;19.16;40.82;101756.53;5056009;28;20045;-60
2023/08/10 07:15:33;;;;;;;4.03;1.75;;;;;;;19.27;40.14;101759.91;5050468;28;20075;-59
2023/08/10 07:18:01;;;;;;;3.95;1.67;;;;;;;19.37;39.83;101753.34;5051101;28;20048;-59
2023/08/10 07:20:33;;;;;;;3.53;1.63;;;;;;;19.45;39.79;101754.22;5042805;28;20432;-57
2023/08/10 07:23:04;;;;;;;3.53;1.55;;;;;;;19.55;39.55;101749.34;5046015;28;20566;-59
2023/08/10 07:25:32;;;;;;;3.60;2.00;;;;;;;19.61;39.56;101750.59;5043226;28;20139;-57
2023/08/10 07:28:00;;;;;;;4.65;2.10;;;;;;;19.69;39.59;101755.28;5046458;28;20147;-56
2023/08/10 07:30:28;;;;;;;4.80;1.60;;;;;;;19.76;39.52;101759.09;5054408;28;20128;-64
2023/08/10 07:32:56;;;;;;;5.20;1.80;;;;;;;19.82;39.15;101762.06;5046162;28;20449;-59
2023/08/10 07:35:25;;;;;;;3.33;1.85;;;;;;;19.87;38.99;101761.53;5048311;28;20047;-60
2023/08/10 07:37:53;;;;;;;3.65;1.88;;;;;;;19.93;38.95;101766.44;5042752;28;20506;-62
2023/08/10 07:40:22;;;;;;;4.28;1.90;;;;;;;19.99;38.45;101765.72;5048410;28;20036;-62
2023/08/10 07:42:50;;;;;;;1.98;1.30;;;;;;;20.02;38.38;101757.06;5048120;28;20041;-62
2023/08/10 07:45:18;;;;;;;3.95;1.70;;;;;;;20.07;37.97;101754.59;5043760;28;20050;-62
2023/08/10 07:47:46;;;;;;;3.25;1.65;;;;;;;20.11;37.72;101757.91;5050661;28;20099;-62
2023/08/10 07:50:15;;;;;;;4.05;1.58;;;;;;;20.13;37.63;101759.44;5057155;28;20479;-63
2023/08/10 07:52:43;;;;;;;2.83;1.50;;;;;;;20.17;37.09;101755.28;5054904;28;20436;-62
2023/08/10 07:55:12;;;;;;;2.88;1.27;;;;;;;20.20;36.70;101754.91;5057270;28;20044;-62
2023/08/10 07:57:42;;;;;;;3.35;1.42;;;;;;;20.25;36.43;101759.97;5047688;28;20329;-62
2023/08/10 08:00:11;;;;;;;4.22;1.20;;;;;;;20.26;36.50;101759.81;5049058;28;20474;-76
2023/08/10 08:02:39;;;;;;;4.13;1.55;;;;;;;20.29;36.66;101762.22;5053979;28;20512;-76
2023/08/10 08:05:08;;;;;;;2.70;1.42;;;;;;;20.32;36.04;101764.66;5034358;28;20051;-77
2023/08/10 08:07:36;;;;;;;3.25;1.33;;;;;;;20.34;35.97;101765.34;5051975;28;20121;-77
2023/08/10 08:10:05;;;;;;;2.20;1.20;;;;;;;20.40;35.66;101763.75;5035766;28;20140;-77
2023/08/10 08:12:33;;;;;;;4.03;1.50;;;;;;;20.43;35.11;101763.41;5058627;28;20131;-77
2023/08/10 08:15:03;;;;;;;3.50;1.30;;;;;;;20.48;34.76;101754.53;5067892;28;20591;-77
2023/08/10 08:18:12;;;;;;;2.53;1.20;;;;;;;20.50;34.61;101766.34;5070366;28;20095;-75
2023/08/10 08:20:41;;;;;;;3.60;1.20;;;;;;;20.53;35.28;101758.50;5048446;28;20072;-76
2023/08/10 08:23:09;;;;;;;3.90;1.42;;;;;;;20.59;35.41;101748.63;5067928;28;20060;-77
2023/08/10 08:25:37;;;;;;;3.85;1.55;;;;;;;20.65;35.50;101751.56;5061160;28;20041;-77
2023/08/10 08:28:07;;;;;;;3.70;1.40;;;;;;;20.71;35.22;101752.75;5057260;28;20048;-78
2023/08/10 08:30:35;;;;;;;3.45;1.40;;;;;;;20.77;35.28;101752.91;5058868;28;20101;-77
2023/08/10 08:33:03;;;;;;;4.32;1.40;;;;;;;20.83;35.23;101751.31;5040228;28;20049;-77
2023/08/10 08:35:31;;;;;;;3.83;1.20;;;;;;;20.89;34.83;101747.81;5045744;28;20051;-74
2023/08/10 08:38:01;;;;;;;2.80;1.30;;;;;;;20.99;34.76;101753.16;5060748;28;20645;-77
2023/08/10 08:40:30;;;;;;;2.03;1.13;;;;;;;21.04;35.00;101748.78;5074792;28;20455;-77
2023/08/10 08:43:00;;;;;;;2.80;1.17;;;;;;;21.12;34.82;101756.22;5047085;28;20048;-78
2023/08/10 08:45:28;;;;;;;3.97;1.20;;;;;;;21.17;34.78;101750.97;5055607;28;20064;-76
2023/08/10 08:47:57;;;;;;;3.38;1.20;;;;;;;21.24;34.67;101762.25;5055283;28;20331;-78
2023/08/10 08:50:27;;;;;;;3.00;1.20;;;;;;;21.33;34.63;101761.19;5056710;28;20045;-77
2023/08/10 08:52:59;;;;;;;2.85;1.20;;;;;;;21.39;34.16;101752.97;5055976;28;20128;-76
2023/08/10 08:55:29;;;;;;;3.55;1.35;;;;;;;21.48;33.85;101756.56;5057894;28;20052;-75
2023/08/10 08:57:57;;;;;;;2.30;1.10;;;;;;;21.52;34.02;101743.97;5036076;28;20269;-78
2023/08/10 09:00:25;;;;;;;2.95;1.20;;;;;;;21.58;33.70;101740.47;5054801;28;20056;-77
2023/08/10 09:02:54;;;;;;;2.55;1.30;;;;;;;21.67;33.71;101749.63;5037412;28;20040;-78
2023/08/10 09:05:22;;;;;;;3.33;1.30;;;;;;;21.73;33.84;101740.53;5048390;28;20045;-76
2023/08/10 09:07:51;;;;;;;4.05;1.30;;;;;;;21.81;33.43;101734.88;5037241;28;20530;-77
2023/08/10 09:10:20;;;;;;;3.50;1.40;;;;;;;21.87;33.46;101729.41;5036813;28;20112;-77
2023/08/10 09:12:50;;;;;;;3.13;1.20;;;;;;;21.96;33.49;101737.75;5027219;28;20512;-78
2023/08/10 09:15:19;;;;;;;2.05;1.10;;;;;;;22.00;33.33;101728.84;5037647;28;20582;-78
2023/08/10 09:17:53;;;;;;;2.58;1.10;;;;;;;22.08;32.96;101727.88;5073920;28;20051;-77
2023/08/10 09:20:22;;;;;;;3.00;1.33;;;;;;;22.14;33.09;101724.31;5071097;28;20078;-77
2023/08/10 09:22:52;;;;;;;2.75;1.25;;;;;;;22.20;32.95;101729.13;5054692;28;20052;-76
2023/08/10 09:25:20;;;;;;;2.53;1.20;;;;;;;22.25;33.00;101719.16;5053816;28;20045;-76
2023/08/10 09:27:51;;;;;;;2.40;1.20;;;;;;;22.35;32.75;101723.56;5055846;28;20073;-77
2023/08/10 09:30:20;;;;;;;3.20;1.27;;;;;;;22.40;32.81;101716.38;5055717;28;20503;-78
2023/08/10 09:32:48;;;;;;;3.15;1.33;;;;;;;22.44;32.47;101723.28;5054719;28;20152;-78
2023/08/10 09:35:17;;;;;;;2.95;1.20;;;;;;;22.52;32.54;101720.41;5062630;28;20165;-77
2023/08/10 09:37:47;;;;;;;3.33;1.20;;;;;;;22.57;32.18;101726.31;5055952;28;20049;-78
2023/08/10 09:40:17;;;;;;;2.80;1.30;;;;;;;22.64;32.29;101730.06;5055330;28;20095;-75
2023/08/10 09:42:45;;;;;;;2.92;1.20;;;;;;;22.69;32.16;101723.03;5037686;28;20049;-78
2023/08/10 09:45:17;;;;;;;3.08;1.38;;;;;;;22.78;31.83;101727.44;5037101;28;20463;-76
2023/08/10 09:47:45;;;;;;;;;;;;;;;22.50;32.90;101730.03;5055385;28;20052;-76
2023/08/10 09:50:14;;;;;;;2.70;0.98;;;;;;;22.85;31.83;101734.00;5053694;28;19920;-76
2023/08/10 09:52:44;;;;;;;3.03;1.33;;;;;;;22.94;31.84;101732.81;5054986;28;20515;-78
2023/08/10 09:55:12;;;;;;;2.85;1.30;;;;;;;22.98;31.78;101735.03;5067561;28;20036;-77
2023/08/10 09:57:45;;;;;;;3.60;1.38;;;;;;;23.05;31.52;101735.13;5072919;28;20499;-77
2023/08/10 10:00:18;;;;;;;2.30;1.27;;;;;;;23.13;31.48;101731.34;5046725;28;20115;-77
2023/08/10 10:02:48;;;;;;;4.95;1.75;;;;;;;23.17;31.47;101727.13;5035192;28;20045;-78
2023/08/10 10:05:17;;;;;;;4.07;1.80;;;;;;;23.22;31.23;101730.22;5034976;28;20044;-76
2023/08/10 10:08:04;;;;;;;5.47;2.15;;;;;;;23.28;31.65;101719.09;5054300;28;20051;-78
2023/08/10 10:10:36;;;;;;;3.97;1.90;;;;;;;23.34;31.26;101726.69;5036893;28;20045;-78
2023/08/10 10:13:06;;;;;;;3.63;2.13;;;;;;;23.38;31.06;101728.03;5053529;28;20049;-76
2023/08/10 10:15:37;;;;;;;3.67;2.20;;;;;;;23.46;30.91;101726.16;5036453;28;20077;-77
2023/08/10 10:18:08;;;;;;;4.50;2.20;;;;;;;23.49;31.10;101726.66;5042470;28;20078;-77
2023/08/10 10:20:39;;;;;;;5.47;2.05;;;;;;;23.58;30.51;101728.22;5056024;28;20059;-76
2023/08/10 10:23:14;;;;;;;5.17;1.97;;;;;;;23.63;30.06;101719.25;5072360;28;20071;-78
2023/08/10 10:25:56;;;;;;;4.85;2.20;;;;;;;23.67;30.75;101721.44;5055856;28;20287;-78
2023/08/10 10:28:24;;;;;;;4.60;2.42;;;;;;;23.70;30.61;101722.97;5073351;28;20067;-78
2023/08/10 10:31:06;;;;;;;5.43;3.10;;;;;;;23.80;29.50;101731.94;5074190;28;20036;-78
2023/08/10 10:33:35;;;;;;;6.13;2.88;;;;;;;23.82;30.41;101728.94;5074000;28;20400;-78
2023/08/10 10:36:08;;;;;;;5.53;2.90;;;;;;;23.91;29.52;101719.34;5073698;28;20127;-77
2023/08/10 10:38:55;;;;;;;5.65;3.20;;;;;;;23.95;29.11;101713.13;5056012;28;20054;-76
2023/08/10 10:41:31;;;;;;;6.63;3.05;;;;;;;23.98;29.08;101715.53;5072193;28;20051;-79
2023/08/10 10:44:01;;;;;;;5.28;2.80;;;;;;;23.99;29.59;101714.44;5078469;28;20448;-76
2023/08/10 10:46:38;;;;;;;6.50;2.83;;;;;;;24.03;29.22;101714.91;5077500;28;20123;-77
2023/08/10 10:49:08;;;;;;;4.68;2.88;;;;;;;24.02;29.55;101718.78;5079613;28;20048;-77
2023/08/10 10:51:58;;;;;;;5.90;3.05;;;;;;;24.01;29.06;101712.31;5080930;28;20060;-76
2023/08/10 10:54:28;;;;;;;6.35;3.00;;;;;;;24.04;29.43;101713.84;5070827;28;20049;-74
2023/08/10 10:56:56;;;;;;;5.50;2.97;;;;;;;24.07;29.77;101717.09;5076578;28;20523;-74
2023/08/10 10:59:24;;;;;;;5.97;2.90;;;;;;;24.11;29.65;101720.38;5058337;28;20090;-75
2023/08/10 11:01:54;;;;;;;6.03;3.20;;;;;;;24.15;29.34;101725.34;5055860;28;20061;-68
2023/08/10 11:04:24;;;;;;;5.60;3.35;;;;;;;24.17;29.76;101711.16;5052975;28;20112;-67
2023/08/10 11:06:52;;;;;;;7.07;3.67;;;;;;;24.22;29.96;101711.44;5054963;28;20359;-65
2023/08/10 11:09:22;;;;;;;7.25;4.20;;;;;;;24.28;29.46;101707.81;5038792;28;20037;-77
2023/08/10 11:11:51;;;;;;;7.60;4.13;;;;;;;24.30;29.53;101705.66;5050134;28;20041;-75
2023/08/10 11:14:19;;;;;;;9.15;5.10;;;;;;;24.33;29.54;101705.25;5035625;28;20065;-76
2023/08/10 11:16:48;;;;;;;7.95;4.90;;;;;;;24.39;29.55;101706.41;5041442;28;20048;-76
2023/08/10 11:19:18;;;;;;;7.40;5.20;;;;;;;24.42;29.13;101708.78;5035112;28;20490;-76
2023/08/10 11:21:48;;;;;;;7.70;4.95;;;;;;;24.43;28.83;101708.56;5055509;28;20051;-76
2023/08/10 11:24:16;;;;;;;8.82;5.55;;;;;;;24.46;29.18;101699.78;5055079;28;20049;-76
2023/08/10 11:26:44;;;;;;;9.55;5.45;;;;;;;24.49;29.21;101712.47;5064676;28;20052;-76
2023/08/10 11:29:12;;;;;;;7.18;4.95;;;;;;;24.53;29.30;101705.41;5046174;28;20132;-76
2023/08/10 11:31:42;;;;;;;8.07;4.13;;;;;;;24.55;29.06;101711.69;5036100;28;20041;-76
2023/08/10 11:34:21;;;;;;;8.50;5.07;;;;;;;24.58;28.06;101697.25;5055660;28;20122;-76
2023/08/10 11:36:50;;;;;;;7.35;4.63;;;;;;;24.55;28.39;101700.47;5049283;28;20522;-76